Time;durP1;ratioP1;P1;durP2;ratioP2;P2;SDS_P1;SDS_P2;PMS_P1;PMS_P2;Temp;Humidity;BMP_temperature;BMP_pressure;BME280_temperature;BME280_humidity;BME280_pressure;Samples;Min_cycle;Max_cycle;Signal;HPM_P1;HPM_P2
2022/11/24 00:01:18;;;;;;;47.07;16.27;;;;;;;;;;5012370;28;20923;-66
2022/11/24 00:03:46;;;;;;;56.17;21.40;;;;;;;;;;5012405;28;20475;-66
2022/11/24 00:06:13;;;;;;;56.37;22.60;;;;;;;;;;5010221;28;20490;-66
2022/11/24 00:08:40;;;;;;;52.77;21.27;;;;;;;;;;5012239;28;20435;-66
2022/11/24 00:11:08;;;;;;;69.50;23.87;;;;;;;;;;5011851;28;20788;-66
2022/11/24 00:13:37;;;;;;;59.87;22.00;;;;;;;;;;5027325;28;20485;-66
2022/11/24 00:16:11;;;;;;;69.20;24.13;;;;;;;;;;5010945;28;21028;-66
2022/11/24 00:18:38;;;;;;;66.00;23.60;;;;;;;;;;5010975;28;20442;-66
2022/11/24 00:21:05;;;;;;;58.93;22.53;;;;;;;;;;5011947;28;20435;-66
2022/11/24 00:23:32;;;;;;;59.77;23.07;;;;;;;;;;5011451;28;20453;-66
2022/11/24 00:26:19;;;;;;;68.93;22.10;;;;;;;;;;5011855;28;20422;-66
2022/11/24 00:28:46;;;;;;;56.20;22.87;;;;;;;;;;5010372;28;20518;-66
2022/11/24 00:31:32;;;;;;;55.40;20.10;;;;;;;;;;5011022;28;20410;-66
2022/11/24 00:33:59;;;;;;;56.67;23.10;;;;;;;;;;5026830;28;20439;-66
2022/11/24 00:36:43;;;;;;;54.87;21.53;;;;;;;;;;5011638;28;21056;-66
2022/11/24 00:39:11;;;;;;;52.33;20.97;;;;;;;;;;5011415;28;20443;-66
2022/11/24 00:41:55;;;;;;;50.03;20.00;;;;;;;;;;5009562;28;20466;-66
2022/11/24 00:44:21;;;;;;;54.73;20.63;;;;;;;;;;4991967;28;20436;-66
2022/11/24 00:46:48;;;;;;;52.40;19.87;;;;;;;;;;4991825;28;20579;-66
2022/11/24 00:49:15;;;;;;;61.73;20.10;;;;;;;;;;4992412;28;20884;-66
2022/11/24 00:51:41;;;;;;;57.90;21.60;;;;;;;;;;4991597;28;20443;-66
2022/11/24 00:54:08;;;;;;;63.87;22.40;;;;;;;;;;4991715;28;20436;-66
2022/11/24 00:56:35;;;;;;;64.60;23.93;;;;;;;;;;4991486;28;20574;-66
2022/11/24 00:59:01;;;;;;;66.27;24.30;;;;;;;;;;4994380;28;20439;-66
2022/11/24 01:01:29;;;;;;;68.93;24.73;;;;;;;;;;5011381;28;20467;-66
2022/11/24 01:03:57;;;;;;;69.47;24.40;;;;;;;;;;5011308;28;20412;-66
2022/11/24 01:06:24;;;;;;;68.00;24.53;;;;;;;;;;5011234;28;20439;-66
2022/11/24 01:08:51;;;;;;;64.53;24.17;;;;;;;;;;5009814;28;20586;-66
2022/11/24 01:11:19;;;;;;;64.13;24.70;;;;;;;;;;5011232;28;21136;-66
2022/11/24 01:13:47;;;;;;;65.80;23.07;;;;;;;;;;5010864;28;20428;-66
2022/11/24 01:16:13;;;;;;;62.37;23.47;;;;;;;;;;5010104;28;20466;-66
2022/11/24 01:18:40;;;;;;;64.87;24.33;;;;;;;;;;5009826;28;20469;-66
2022/11/24 01:21:07;;;;;;;71.80;23.80;;;;;;;;;;5010753;28;20466;-66
2022/11/24 01:23:35;;;;;;;84.03;26.63;;;;;;;;;;5010805;28;20423;-66
2022/11/24 01:26:03;;;;;;;60.87;24.23;;;;;;;;;;5010689;28;20429;-66
2022/11/24 01:28:30;;;;;;;79.60;27.03;;;;;;;;;;5009724;28;20930;-66
2022/11/24 01:30:57;;;;;;;67.30;26.03;;;;;;;;;;5009681;28;20970;-66
2022/11/24 01:33:24;;;;;;;65.43;24.80;;;;;;;;;;5009864;28;20454;-66
2022/11/24 01:35:51;;;;;;;66.10;24.70;;;;;;;;;;5010535;28;20937;-66
2022/11/24 01:38:17;;;;;;;64.00;24.13;;;;;;;;;;5010576;28;20416;-66
2022/11/24 01:40:44;;;;;;;64.83;25.00;;;;;;;;;;5010442;28;20441;-66
2022/11/24 01:43:17;;;;;;;55.47;23.83;;;;;;;;;;5010710;28;20989;-66
2022/11/24 01:46:05;;;;;;;65.13;24.27;;;;;;;;;;5010631;28;20929;-66
2022/11/24 01:48:34;;;;;;;65.77;23.37;;;;;;;;;;5010204;28;20446;-67
2022/11/24 01:51:12;;;;;;;60.33;22.87;;;;;;;;;;4989467;28;20489;-66
2022/11/24 01:53:40;;;;;;;57.33;23.07;;;;;;;;;;4990316;28;20436;-66
2022/11/24 01:56:06;;;;;;;55.47;22.17;;;;;;;;;;4989813;28;20495;-66
2022/11/24 01:58:33;;;;;;;58.33;22.33;;;;;;;;;;4990917;28;20435;-66
2022/11/24 02:00:59;;;;;;;55.03;21.80;;;;;;;;;;4989378;28;20741;-66
2022/11/24 02:03:28;;;;;;;58.83;22.07;;;;;;;;;;4990443;28;20487;-66
2022/11/24 02:05:59;;;;;;;57.47;22.43;;;;;;;;;;4990678;28;20436;-66
2022/11/24 02:08:28;;;;;;;65.00;21.17;;;;;;;;;;4990244;28;20872;-66
2022/11/24 02:10:55;;;;;;;65.47;23.33;;;;;;;;;;5006804;28;20439;-66
2022/11/24 02:13:22;;;;;;;62.57;24.20;;;;;;;;;;5009139;28;20515;-66
2022/11/24 02:15:48;;;;;;;58.23;23.80;;;;;;;;;;5009756;28;20509;-66
2022/11/24 02:18:32;;;;;;;60.80;23.50;;;;;;;;;;5009888;28;20469;-66
2022/11/24 02:20:59;;;;;;;62.33;22.50;;;;;;;;;;5009564;28;20434;-66
2022/11/24 02:23:46;;;;;;;72.53;25.73;;;;;;;;;;5009643;28;20792;-66
2022/11/24 02:26:16;;;;;;;60.20;23.00;;;;;;;;;;5009676;28;20482;-66
2022/11/24 02:28:42;;;;;;;61.17;23.40;;;;;;;;;;5008839;28;20522;-67
2022/11/24 02:31:09;;;;;;;62.47;22.70;;;;;;;;;;5009850;28;20977;-66
2022/11/24 02:33:36;;;;;;;57.63;23.80;;;;;;;;;;5009763;28;20437;-66
2022/11/24 02:36:02;;;;;;;59.17;22.77;;;;;;;;;;5008384;28;20462;-66
2022/11/24 02:38:30;;;;;;;60.97;24.17;;;;;;;;;;5009476;28;20530;-66
2022/11/24 02:40:56;;;;;;;57.57;22.17;;;;;;;;;;5009507;28;20428;-66
2022/11/24 02:43:23;;;;;;;56.50;22.80;;;;;;;;;;5008511;28;20431;-66
2022/11/24 02:45:50;;;;;;;57.80;23.10;;;;;;;;;;5008873;28;20819;-66
2022/11/24 02:48:16;;;;;;;62.67;24.37;;;;;;;;;;5009476;28;20536;-66
2022/11/24 02:51:00;;;;;;;64.77;23.07;;;;;;;;;;5009517;28;20915;-66
2022/11/24 02:53:27;;;;;;;55.70;22.27;;;;;;;;;;5008205;28;20435;-66
2022/11/24 02:56:11;;;;;;;56.00;21.73;;;;;;;;;;5009225;28;20494;-66
2022/11/24 02:58:38;;;;;;;63.27;22.37;;;;;;;;;;5009212;28;20434;-67
2022/11/24 03:01:05;;;;;;;57.27;23.33;;;;;;;;;;5025163;28;21240;-66
2022/11/24 03:03:31;;;;;;;59.00;22.67;;;;;;;;;;5009361;28;20479;-66
2022/11/24 03:05:58;;;;;;;61.90;22.27;;;;;;;;;;5010248;28;21101;-67
2022/11/24 03:08:25;;;;;;;64.93;24.30;;;;;;;;;;5013422;28;21062;-66
2022/11/24 03:10:51;;;;;;;62.33;23.67;;;;;;;;;;5013183;28;20951;-66
2022/11/24 03:13:18;;;;;;;67.77;24.23;;;;;;;;;;5013393;28;20431;-66
2022/11/24 03:16:04;;;;;;;59.77;22.30;;;;;;;;;;5013419;28;20539;-66
2022/11/24 03:18:31;;;;;;;58.13;22.23;;;;;;;;;;4995731;28;20447;-66
2022/11/24 03:20:58;;;;;;;59.27;22.60;;;;;;;;;;5013415;28;20521;-66
2022/11/24 03:23:25;;;;;;;59.20;23.13;;;;;;;;;;5013219;28;21220;-66
2022/11/24 03:25:51;;;;;;;53.07;21.77;;;;;;;;;;5012389;28;20458;-67
2022/11/24 03:28:18;;;;;;;62.10;23.30;;;;;;;;;;5013337;28;20430;-66
2022/11/24 03:30:47;;;;;;;64.20;22.13;;;;;;;;;;5013028;28;20489;-66
2022/11/24 03:33:13;;;;;;;75.00;22.60;;;;;;;;;;5013092;28;20764;-66
2022/11/24 03:35:40;;;;;;;56.67;20.53;;;;;;;;;;5011475;28;20430;-67
2022/11/24 03:38:07;;;;;;;57.87;23.03;;;;;;;;;;5012597;28;20446;-67
2022/11/24 03:40:34;;;;;;;82.47;25.30;;;;;;;;;;5012927;28;20472;-66
2022/11/24 03:43:01;;;;;;;70.03;23.23;;;;;;;;;;5013068;28;20526;-66
2022/11/24 03:45:28;;;;;;;66.90;22.80;;;;;;;;;;5012605;28;20880;-66
2022/11/24 03:48:12;;;;;;;69.90;23.60;;;;;;;;;;5012120;28;20453;-66
2022/11/24 03:50:38;;;;;;;74.23;22.67;;;;;;;;;;5012334;28;21291;-66
2022/11/24 03:53:05;;;;;;;77.17;24.60;;;;;;;;;;5012612;28;20430;-66
2022/11/24 03:55:32;;;;;;;64.27;23.20;;;;;;;;;;5012353;28;20459;-66
2022/11/24 03:57:59;;;;;;;68.20;23.87;;;;;;;;;;5012413;28;20483;-66
2022/11/24 04:00:25;;;;;;;64.83;24.23;;;;;;;;;;5012469;28;20434;-66
2022/11/24 04:02:52;;;;;;;61.80;22.10;;;;;;;;;;5011566;28;20546;-66
2022/11/24 04:05:36;;;;;;;60.33;22.47;;;;;;;;;;5011486;28;20442;-66
2022/11/24 04:08:04;;;;;;;61.37;23.33;;;;;;;;;;5012179;28;20423;-66
2022/11/24 04:10:31;;;;;;;61.13;22.67;;;;;;;;;;5012227;28;20569;-66
2022/11/24 04:12:57;;;;;;;52.67;21.87;;;;;;;;;;5012213;28;20446;-66
2022/11/24 04:15:24;;;;;;;44.87;21.03;;;;;;;;;;5012117;28;20435;-66
2022/11/24 04:18:08;;;;;;;43.93;19.10;;;;;;;;;;5024371;28;20426;-67
2022/11/24 04:20:35;;;;;;;44.93;18.63;;;;;;;;;;5011913;28;20431;-66
2022/11/24 04:23:20;;;;;;;42.60;18.80;;;;;;;;;;5011105;28;20826;-66
2022/11/24 04:25:46;;;;;;;41.60;18.37;;;;;;;;;;5011618;28;20431;-66
2022/11/24 04:28:13;;;;;;;43.20;18.07;;;;;;;;;;5012207;28;20441;-67
2022/11/24 04:30:43;;;;;;;43.97;18.07;;;;;;;;;;5011763;28;20435;-66
2022/11/24 04:33:10;;;;;;;44.73;18.97;;;;;;;;;;5011931;28;20462;-66
2022/11/24 04:35:37;;;;;;;43.40;19.07;;;;;;;;;;5011768;28;20431;-67
2022/11/24 04:38:03;;;;;;;44.73;18.77;;;;;;;;;;5010616;28;20471;-66
2022/11/24 04:40:30;;;;;;;41.50;18.10;;;;;;;;;;5011542;28;20942;-67
2022/11/24 04:42:57;;;;;;;37.90;16.10;;;;;;;;;;5011565;28;20446;-66
2022/11/24 04:45:24;;;;;;;41.67;18.17;;;;;;;;;;5010885;28;20838;-67
2022/11/24 04:47:50;;;;;;;43.10;19.03;;;;;;;;;;5011717;28;20466;-66
2022/11/24 04:50:17;;;;;;;40.50;18.00;;;;;;;;;;5011509;28;20427;-66
2022/11/24 04:52:44;;;;;;;39.93;17.43;;;;;;;;;;5011429;28;20435;-66
2022/11/24 04:55:10;;;;;;;37.07;17.50;;;;;;;;;;5011552;28;20455;-66
2022/11/24 04:57:37;;;;;;;43.13;17.47;;;;;;;;;;5011151;28;20838;-66
2022/11/24 05:00:04;;;;;;;37.10;17.10;;;;;;;;;;5010645;28;20424;-66
2022/11/24 05:02:31;;;;;;;41.87;17.00;;;;;;;;;;5011290;28;20435;-66
2022/11/24 05:04:57;;;;;;;39.80;17.43;;;;;;;;;;5011257;28;20962;-66
2022/11/24 05:07:24;;;;;;;45.53;18.93;;;;;;;;;;5008014;28;20984;-66
2022/11/24 05:12:38;;;;;;;47.10;19.50;;;;;;;;;;4997640;28;21031;-69
2022/11/24 05:15:05;;;;;;;50.03;19.70;;;;;;;;;;5008336;28;20998;-69
2022/11/24 05:17:32;;;;;;;48.03;18.83;;;;;;;;;;5003844;28;20483;-69
2022/11/24 05:20:17;;;;;;;49.67;19.27;;;;;;;;;;4997148;28;20429;-70
2022/11/24 05:22:43;;;;;;;45.93;18.53;;;;;;;;;;5007020;28;20790;-70
2022/11/24 05:25:11;;;;;;;53.53;19.60;;;;;;;;;;5000376;28;21200;-69
2022/11/24 05:27:38;;;;;;;52.50;20.67;;;;;;;;;;5006433;28;20518;-68
2022/11/24 05:30:05;;;;;;;52.87;20.80;;;;;;;;;;5007421;28;20947;-67
2022/11/24 05:32:31;;;;;;;56.37;19.97;;;;;;;;;;5023154;28;20441;-66
2022/11/24 05:35:00;;;;;;;46.07;19.43;;;;;;;;;;5007575;28;20443;-65
2022/11/24 05:37:27;;;;;;;44.33;18.53;;;;;;;;;;4990978;28;20488;-66
2022/11/24 05:40:11;;;;;;;53.67;21.30;;;;;;;;;;5009330;28;20435;-66
2022/11/24 05:42:41;;;;;;;50.00;20.63;;;;;;;;;;5011641;28;21026;-66
2022/11/24 05:45:14;;;;;;;49.90;20.43;;;;;;;;;;5011207;28;20447;-65
2022/11/24 05:47:41;;;;;;;51.23;21.17;;;;;;;;;;5011367;28;20802;-66
2022/11/24 05:50:14;;;;;;;60.13;21.40;;;;;;;;;;5093916;27;1346314;-66
2022/11/24 05:52:41;;;;;;;61.00;22.03;;;;;;;;;;5115263;28;20200;-66
2022/11/24 05:55:07;;;;;;;53.83;21.17;;;;;;;;;;5114193;28;20940;-65
2022/11/24 05:57:34;;;;;;;55.33;20.40;;;;;;;;;;5099676;28;20446;-65
2022/11/24 06:00:02;;;;;;;52.67;19.93;;;;;;;;;;5104277;28;20438;-67
2022/11/24 06:02:37;;;;;;;53.33;20.63;;;;;;;;;;5095798;28;20418;-65
2022/11/24 06:05:04;;;;;;;55.77;20.53;;;;;;;;;;5102555;28;20427;-67
2022/11/24 06:07:48;;;;;;;51.03;20.20;;;;;;;;;;5072637;28;20426;-67
2022/11/24 06:10:15;;;;;;;66.23;22.17;;;;;;;;;;5103380;28;20411;-67
2022/11/24 06:12:42;;;;;;;57.13;21.07;;;;;;;;;;5103368;28;20977;-67
2022/11/24 06:15:10;;;;;;;54.40;20.27;;;;;;;;;;5046017;28;20512;-67
2022/11/24 06:17:37;;;;;;;53.17;20.87;;;;;;;;;;5042341;28;20940;-67
2022/11/24 06:20:21;;;;;;;57.70;21.93;;;;;;;;;;5039157;28;20444;-67
2022/11/24 06:22:52;;;;;;;54.97;21.27;;;;;;;;;;5043850;28;20448;-68
2022/11/24 06:25:19;;;;;;;63.30;22.27;;;;;;;;;;5041999;28;20492;-68
2022/11/24 06:27:45;;;;;;;51.73;19.87;;;;;;;;;;5043268;28;20572;-67
2022/11/24 06:30:12;;;;;;;51.00;20.00;;;;;;;;;;5045987;28;20501;-67
2022/11/24 06:32:43;;;;;;;52.07;21.20;;;;;;;;;;5045745;28;20470;-67
2022/11/24 06:35:15;;;;;;;52.13;21.70;;;;;;;;;;5045707;28;20491;-68
2022/11/24 06:37:41;;;;;;;58.80;20.23;;;;;;;;;;5045808;28;20512;-68
2022/11/24 06:40:08;;;;;;;53.53;20.70;;;;;;;;;;5045765;28;21026;-67
2022/11/24 06:42:35;;;;;;;51.17;21.30;;;;;;;;;;5040194;28;20525;-68
2022/11/24 06:45:02;;;;;;;51.03;20.27;;;;;;;;;;5028279;28;20778;-67
2022/11/24 06:47:34;;;;;;;52.93;20.33;;;;;;;;;;5042411;28;20436;-66
2022/11/24 06:50:01;;;;;;;49.83;19.27;;;;;;;;;;5041747;28;20984;-69
2022/11/24 06:52:28;;;;;;;47.90;19.07;;;;;;;;;;5040559;28;21117;-65
2022/11/24 06:54:54;;;;;;;47.83;19.47;;;;;;;;;;5042371;28;20472;-65
2022/11/24 06:57:21;;;;;;;46.17;18.53;;;;;;;;;;5040941;28;20429;-65
2022/11/24 07:00:06;;;;;;;57.43;19.60;;;;;;;;;;5036439;28;21171;-67
2022/11/24 07:02:33;;;;;;;50.07;20.03;;;;;;;;;;5028736;28;20925;-65
2022/11/24 07:05:00;;;;;;;51.07;20.20;;;;;;;;;;5028416;28;20503;-65
2022/11/24 07:07:26;;;;;;;52.83;20.50;;;;;;;;;;5029236;28;20617;-66
2022/11/24 07:09:53;;;;;;;49.33;19.37;;;;;;;;;;5028669;28;20469;-65
2022/11/24 07:12:19;;;;;;;54.00;20.73;;;;;;;;;;5028751;28;20525;-67
2022/11/24 07:14:46;;;;;;;62.07;21.30;;;;;;;;;;5029506;28;20541;-66
2022/11/24 07:17:12;;;;;;;56.87;20.87;;;;;;;;;;5029355;28;21015;-65
2022/11/24 07:19:39;;;;;;;52.90;19.43;;;;;;;;;;5044765;28;21122;-72
2022/11/24 07:22:05;;;;;;;50.27;19.10;;;;;;;;;;5047954;28;20569;-71
2022/11/24 07:24:32;;;;;;;49.60;19.67;;;;;;;;;;5046380;28;20449;-67
2022/11/24 07:26:59;;;;;;;44.53;19.43;;;;;;;;;;5049117;28;20433;-67
2022/11/24 07:29:26;;;;;;;51.20;19.37;;;;;;;;;;5048020;28;20516;-67
2022/11/24 07:31:52;;;;;;;62.77;21.73;;;;;;;;;;5049683;28;20525;-68
2022/11/24 07:34:38;;;;;;;59.53;20.87;;;;;;;;;;5047779;28;20433;-69
2022/11/24 07:37:04;;;;;;;48.50;19.53;;;;;;;;;;5048172;28;20472;-71
2022/11/24 07:39:31;;;;;;;52.40;19.37;;;;;;;;;;5048025;28;20433;-67
2022/11/24 07:41:59;;;;;;;53.10;19.33;;;;;;;;;;5048065;28;20449;-66
2022/11/24 07:44:25;;;;;;;53.63;20.53;;;;;;;;;;5048169;28;20530;-69
2022/11/24 07:46:52;;;;;;;48.47;19.83;;;;;;;;;;5031146;28;20483;-68
2022/11/24 07:49:18;;;;;;;51.70;20.40;;;;;;;;;;5048005;28;20600;-69
2022/11/24 07:51:45;;;;;;;55.77;20.00;;;;;;;;;;5048749;28;20422;-69
2022/11/24 07:54:12;;;;;;;53.40;20.13;;;;;;;;;;5046446;28;20572;-68
2022/11/24 07:56:39;;;;;;;47.33;19.60;;;;;;;;;;5045154;28;20457;-69
2022/11/24 07:59:05;;;;;;;47.00;18.60;;;;;;;;;;5047468;28;20500;-69
2022/11/24 08:01:50;;;;;;;55.37;20.83;;;;;;;;;;5048404;28;20502;-69
2022/11/24 08:04:17;;;;;;;52.03;19.57;;;;;;;;;;5046066;28;20448;-68
2022/11/24 08:06:44;;;;;;;54.40;21.13;;;;;;;;;;5048645;28;20447;-69
2022/11/24 08:09:13;;;;;;;52.53;20.80;;;;;;;;;;5045769;28;20467;-68
2022/11/24 08:11:40;;;;;;;49.90;19.30;;;;;;;;;;5047355;28;20429;-69
2022/11/24 08:14:26;;;;;;;48.43;19.00;;;;;;;;;;5047637;28;20440;-68
2022/11/24 08:16:53;;;;;;;48.33;20.00;;;;;;;;;;5048338;28;20433;-69
2022/11/24 08:19:20;;;;;;;62.60;23.20;;;;;;;;;;5047619;28;20445;-69
2022/11/24 08:21:47;;;;;;;48.93;19.40;;;;;;;;;;5046146;28;20551;-69
2022/11/24 08:24:15;;;;;;;56.23;20.30;;;;;;;;;;5043588;28;20495;-71
2022/11/24 08:26:41;;;;;;;49.63;19.77;;;;;;;;;;5047761;28;20464;-67
2022/11/24 08:29:08;;;;;;;51.27;18.13;;;;;;;;;;5046570;28;20926;-69
2022/11/24 08:31:36;;;;;;;48.17;20.07;;;;;;;;;;5046670;28;20433;-68
2022/11/24 08:34:03;;;;;;;53.37;19.93;;;;;;;;;;5046016;28;20586;-67
2022/11/24 08:36:29;;;;;;;49.57;19.60;;;;;;;;;;5045971;28;20433;-66
2022/11/24 08:38:57;;;;;;;50.80;20.50;;;;;;;;;;5045526;28;20524;-67
2022/11/24 08:41:24;;;;;;;53.80;20.17;;;;;;;;;;5044915;28;20444;-64
2022/11/24 08:43:50;;;;;;;46.67;18.03;;;;;;;;;;5043889;28;20468;-66
2022/11/24 08:46:17;;;;;;;50.07;19.27;;;;;;;;;;5045477;28;20979;-66
2022/11/24 08:49:01;;;;;;;52.93;19.50;;;;;;;;;;5045775;28;20519;-67
2022/11/24 08:51:27;;;;;;;52.70;20.67;;;;;;;;;;5046330;28;20935;-67
2022/11/24 08:53:58;;;;;;;45.73;18.97;;;;;;;;;;5040058;28;20664;-67
2022/11/24 08:56:24;;;;;;;54.90;21.17;;;;;;;;;;5040689;28;20472;-67
2022/11/24 08:58:51;;;;;;;53.07;21.57;;;;;;;;;;5046457;28;20449;-67
2022/11/24 09:01:18;;;;;;;52.33;19.80;;;;;;;;;;5045741;28;20461;-65
2022/11/24 09:03:45;;;;;;;51.80;20.60;;;;;;;;;;5046911;28;20448;-68
2022/11/24 09:06:17;;;;;;;54.17;20.90;;;;;;;;;;5045986;28;20449;-67
2022/11/24 09:08:43;;;;;;;57.87;20.60;;;;;;;;;;5043788;28;20861;-67
2022/11/24 09:11:11;;;;;;;57.50;20.57;;;;;;;;;;5046140;28;20441;-66
2022/11/24 09:13:38;;;;;;;54.37;20.83;;;;;;;;;;5029227;28;20433;-67
2022/11/24 09:16:06;;;;;;;54.10;21.00;;;;;;;;;;5046226;28;20437;-69
2022/11/24 09:18:33;;;;;;;57.63;19.60;;;;;;;;;;5045293;28;20944;-65
2022/11/24 09:21:07;;;;;;;49.37;19.37;;;;;;;;;;5046422;28;20448;-67
2022/11/24 09:23:51;;;;;;;49.70;19.77;;;;;;;;;;5045662;28;20433;-67
2022/11/24 09:26:28;;;;;;;57.13;19.53;;;;;;;;;;5045614;28;20937;-65
2022/11/24 09:29:12;;;;;;;62.00;20.23;;;;;;;;;;5045082;28;20469;-68
2022/11/24 09:31:39;;;;;;;55.40;19.67;;;;;;;;;;5046120;28;20459;-66
2022/11/24 09:34:06;;;;;;;53.93;19.83;;;;;;;;;;5041442;28;20460;-67
2022/11/24 09:36:33;;;;;;;54.97;19.60;;;;;;;;;;5045605;28;20849;-66
2022/11/24 09:38:59;;;;;;;48.73;18.83;;;;;;;;;;5044409;28;20429;-66
2022/11/24 09:41:29;;;;;;;55.43;21.47;;;;;;;;;;5045000;28;20499;-67
2022/11/24 09:43:59;;;;;;;52.73;20.00;;;;;;;;;;5046873;28;21115;-67
2022/11/24 09:46:32;;;;;;;55.80;20.93;;;;;;;;;;5045873;28;20433;-66
2022/11/24 09:48:59;;;;;;;60.77;21.93;;;;;;;;;;5043668;28;20457;-67
2022/11/24 09:51:27;;;;;;;56.43;21.07;;;;;;;;;;5027562;28;21008;-68
2022/11/24 09:53:55;;;;;;;58.20;20.90;;;;;;;;;;5045723;28;20464;-68
2022/11/24 09:56:26;;;;;;;63.57;24.07;;;;;;;;;;5045199;28;20946;-68
2022/11/24 09:59:02;;;;;;;62.47;22.43;;;;;;;;;;5043864;28;20436;-68
2022/11/24 10:01:29;;;;;;;64.07;22.70;;;;;;;;;;5046274;28;20836;-68
2022/11/24 10:03:56;;;;;;;56.40;22.03;;;;;;;;;;5045973;28;21147;-68
2022/11/24 10:06:38;;;;;;;62.23;21.73;;;;;;;;;;5045001;28;20425;-68
2022/11/24 10:09:08;;;;;;;51.57;20.97;;;;;;;;;;5042715;28;20449;-68
2022/11/24 10:11:41;;;;;;;53.80;21.97;;;;;;;;;;5046289;28;20488;-67
2022/11/24 10:14:25;;;;;;;54.13;20.87;;;;;;;;;;5044655;28;20432;-68
2022/11/24 10:16:55;;;;;;;54.20;20.70;;;;;;;;;;5045939;28;20488;-69
2022/11/24 10:19:44;;;;;;;50.30;20.17;;;;;;;;;;5044563;28;20741;-69
2022/11/24 10:22:13;;;;;;;47.83;19.40;;;;;;;;;;5045008;28;20948;-69
2022/11/24 10:24:57;;;;;;;47.83;19.57;;;;;;;;;;5024883;28;20661;-70
2022/11/24 10:27:26;;;;;;;47.33;18.70;;;;;;;;;;5037078;28;20436;-69
2022/11/24 10:29:55;;;;;;;54.03;20.77;;;;;;;;;;5043490;28;20481;-69
2022/11/24 10:32:22;;;;;;;52.90;20.60;;;;;;;;;;5046232;28;20437;-69
2022/11/24 10:34:49;;;;;;;56.83;19.97;;;;;;;;;;5044888;28;20871;-66
2022/11/24 10:37:19;;;;;;;56.20;20.30;;;;;;;;;;5050268;28;20537;-68
2022/11/24 10:39:49;;;;;;;44.80;18.63;;;;;;;;;;5048080;28;20451;-68
2022/11/24 10:42:25;;;;;;;49.03;20.27;;;;;;;;;;5049966;28;20819;-68
2022/11/24 10:44:58;;;;;;;57.83;21.13;;;;;;;;;;5049770;28;20425;-68
2022/11/24 10:47:25;;;;;;;67.57;24.80;;;;;;;;;;5049425;28;20436;-70
2022/11/24 10:50:02;;;;;;;57.17;22.20;;;;;;;;;;5048031;28;20869;-70
2022/11/24 10:52:31;;;;;;;58.83;22.13;;;;;;;;;;5043289;28;20441;-68
2022/11/24 10:54:59;;;;;;;56.27;20.97;;;;;;;;;;5047217;28;20447;-71
2022/11/24 10:57:27;;;;;;;49.83;20.10;;;;;;;;;;5048764;28;20429;-69
2022/11/24 10:59:54;;;;;;;52.57;20.57;;;;;;;;;;5047348;28;20464;-68
2022/11/24 11:02:37;;;;;;;59.87;20.63;;;;;;;;;;5039234;28;20467;-68
2022/11/24 11:05:22;;;;;;;54.30;20.90;;;;;;;;;;5030142;28;20944;-69
2022/11/24 11:07:49;;;;;;;52.63;20.03;;;;;;;;;;5048465;28;20465;-69
2022/11/24 11:10:17;;;;;;;48.50;18.70;;;;;;;;;;5049929;28;20520;-67
2022/11/24 11:12:44;;;;;;;48.93;20.23;;;;;;;;;;5050957;28;20541;-67
2022/11/24 11:15:21;;;;;;;48.13;18.93;;;;;;;;;;5049758;28;20444;-67
2022/11/24 11:17:49;;;;;;;52.67;20.50;;;;;;;;;;5050887;28;20436;-67
2022/11/24 11:20:16;;;;;;;54.37;21.37;;;;;;;;;;5048676;28;20442;-67
2022/11/24 11:22:44;;;;;;;54.03;20.27;;;;;;;;;;5044790;28;20468;-69
2022/11/24 11:25:13;;;;;;;57.83;20.77;;;;;;;;;;5048598;28;20433;-69
2022/11/24 11:27:40;;;;;;;54.20;20.77;;;;;;;;;;5049117;28;20450;-70
2022/11/24 11:30:16;;;;;;;55.63;20.33;;;;;;;;;;5047185;28;20480;-72
2022/11/24 11:33:03;;;;;;;59.83;20.30;;;;;;;;;;5047679;28;20468;-67
2022/11/24 11:35:49;;;;;;;53.27;21.03;;;;;;;;;;5048884;28;20448;-69
2022/11/24 11:38:16;;;;;;;52.87;19.23;;;;;;;;;;5046378;28;20530;-67
2022/11/24 11:40:43;;;;;;;53.13;19.57;;;;;;;;;;5048489;28;20499;-66
2022/11/24 11:43:29;;;;;;;59.23;20.13;;;;;;;;;;5047343;28;20478;-68
2022/11/24 11:46:01;;;;;;;66.60;22.97;;;;;;;;;;5046231;28;20877;-67
2022/11/24 11:48:31;;;;;;;61.63;21.43;;;;;;;;;;5047224;28;20465;-66
2022/11/24 11:51:25;;;;;;;60.83;20.67;;;;;;;;;;5028852;28;20501;-71
2022/11/24 11:54:01;;;;;;;56.80;22.00;;;;;;;;;;5047132;28;20436;-68
2022/11/24 11:56:29;;;;;;;51.87;20.53;;;;;;;;;;5048794;28;20483;-68
2022/11/24 11:59:14;;;;;;;48.83;19.40;;;;;;;;;;5044987;28;21286;-69
2022/11/24 12:01:58;;;;;;;55.30;21.83;;;;;;;;;;5048532;28;20447;-70
2022/11/24 12:04:43;;;;;;;53.77;20.40;;;;;;;;;;5048325;28;20447;-69
2022/11/24 12:07:15;;;;;;;65.87;22.77;;;;;;;;;;5046630;28;20445;-68
2022/11/24 12:09:57;;;;;;;60.90;23.30;;;;;;;;;;5048467;28;20465;-69
2022/11/24 12:12:24;;;;;;;64.50;21.90;;;;;;;;;;5047216;28;20440;-68
2022/11/24 12:14:50;;;;;;;57.23;20.60;;;;;;;;;;5047171;28;20437;-65
2022/11/24 12:17:35;;;;;;;56.53;21.43;;;;;;;;;;5047575;28;20473;-67
2022/11/24 12:20:06;;;;;;;52.60;20.77;;;;;;;;;;5038879;28;20452;-68
2022/11/24 12:22:35;;;;;;;55.50;20.00;;;;;;;;;;5040633;28;20441;-69
2022/11/24 12:25:12;;;;;;;59.37;20.60;;;;;;;;;;5047497;28;20421;-66
2022/11/24 12:27:42;;;;;;;58.57;22.60;;;;;;;;;;5047518;28;20460;-67
2022/11/24 12:30:15;;;;;;;60.07;21.73;;;;;;;;;;5044707;28;20543;-66
2022/11/24 12:32:53;;;;;;;56.13;20.80;;;;;;;;;;5037366;28;21006;-67
2022/11/24 12:35:29;;;;;;;57.17;21.27;;;;;;;;;;5047506;28;20479;-69
2022/11/24 12:37:58;;;;;;;56.37;20.80;;;;;;;;;;5045465;28;20955;-69
2022/11/24 12:40:44;;;;;;;55.90;21.13;;;;;;;;;;5047601;28;21329;-67
2022/11/24 12:43:31;;;;;;;50.83;20.70;;;;;;;;;;5046190;28;20991;-68
2022/11/24 12:46:01;;;;;;;65.57;22.33;;;;;;;;;;5046934;28;20445;-67
2022/11/24 12:48:31;;;;;;;63.07;22.70;;;;;;;;;;5045548;28;20476;-68
2022/11/24 12:50:57;;;;;;;64.70;22.50;;;;;;;;;;5046157;28;20555;-67
2022/11/24 12:53:26;;;;;;;62.37;21.73;;;;;;;;;;5045410;28;21217;-65
2022/11/24 12:55:53;;;;;;;61.37;22.37;;;;;;;;;;5044536;28;20448;-67
2022/11/24 12:58:23;;;;;;;63.90;22.10;;;;;;;;;;5044360;28;20497;-66
2022/11/24 13:00:55;;;;;;;63.83;23.00;;;;;;;;;;5053084;28;20511;-67
2022/11/24 13:03:34;;;;;;;64.20;23.40;;;;;;;;;;5058084;28;20447;-68
2022/11/24 13:06:07;;;;;;;61.37;21.13;;;;;;;;;;5046092;28;20843;-65
2022/11/24 13:08:34;;;;;;;57.57;21.13;;;;;;;;;;5044721;28;22145;-69
2022/11/24 13:11:19;;;;;;;53.97;21.30;;;;;;;;;;5043736;28;20554;-67
2022/11/24 13:13:59;;;;;;;64.93;22.27;;;;;;;;;;5044466;28;20441;-64
2022/11/24 13:16:25;;;;;;;61.77;21.80;;;;;;;;;;5056724;28;20557;-64
2022/11/24 13:19:25;;;;;;;59.30;22.63;;;;;;;;;;5065156;28;20445;-64
2022/11/24 13:21:59;;;;;;;64.27;22.03;;;;;;;;;;5029347;28;20425;-64
2022/11/24 13:24:29;;;;;;;59.80;22.57;;;;;;;;;;5029571;28;20452;-64
2022/11/24 13:27:25;;;;;;;61.90;22.67;;;;;;;;;;5028438;28;20437;-65
2022/11/24 13:29:52;;;;;;;57.80;22.17;;;;;;;;;;5040063;28;20453;-67
2022/11/24 13:32:19;;;;;;;54.20;20.73;;;;;;;;;;5044507;28;20445;-66
2022/11/24 13:34:48;;;;;;;57.33;21.47;;;;;;;;;;5044910;28;20442;-67
2022/11/24 13:37:17;;;;;;;56.13;20.80;;;;;;;;;;5045921;28;20449;-67
2022/11/24 13:40:10;;;;;;;62.77;22.83;;;;;;;;;;5024992;28;20476;-67
2022/11/24 13:42:56;;;;;;;67.03;21.57;;;;;;;;;;5041943;28;20574;-68
2022/11/24 13:45:52;;;;;;;67.50;24.00;;;;;;;;;;5045735;28;20523;-68
2022/11/24 13:48:19;;;;;;;70.90;24.70;;;;;;;;;;5029119;28;20449;-65
2022/11/24 13:50:53;;;;;;;78.57;26.03;;;;;;;;;;5046218;28;20465;-65
2022/11/24 13:53:20;;;;;;;68.17;23.63;;;;;;;;;;5045520;28;20449;-66
2022/11/24 13:56:10;;;;;;;74.90;25.40;;;;;;;;;;5044913;28;20493;-66
2022/11/24 13:58:58;;;;;;;76.10;24.67;;;;;;;;;;5038028;28;20479;-68
2022/11/24 14:01:25;;;;;;;80.57;26.80;;;;;;;;;;5044898;28;20437;-67
2022/11/24 14:04:11;;;;;;;75.70;25.93;;;;;;;;;;5044196;28;20487;-66
2022/11/24 14:06:59;;;;;;;74.47;25.60;;;;;;;;;;5046074;28;20530;-66
2022/11/24 14:09:41;;;;;;;81.67;26.40;;;;;;;;;;5044494;28;20535;-68
2022/11/24 14:12:10;;;;;;;78.47;25.23;;;;;;;;;;5029293;28;20559;-66
2022/11/24 14:14:40;;;;;;;71.77;24.40;;;;;;;;;;5050151;28;21013;-68
2022/11/24 14:17:21;;;;;;;71.13;23.87;;;;;;;;;;5049398;28;20540;-67
2022/11/24 14:20:15;;;;;;;71.47;24.13;;;;;;;;;;5048492;28;20591;-66
2022/11/24 14:22:41;;;;;;;67.73;24.00;;;;;;;;;;5048971;28;20481;-66
2022/11/24 14:25:31;;;;;;;56.90;22.03;;;;;;;;;;5050173;28;20485;-66
2022/11/24 14:27:58;;;;;;;69.00;23.33;;;;;;;;;;5043619;28;20816;-68
2022/11/24 14:30:25;;;;;;;62.17;24.23;;;;;;;;;;5048113;28;21241;-67
2022/11/24 14:32:55;;;;;;;65.70;24.50;;;;;;;;;;5051513;28;20536;-67
2022/11/24 14:35:26;;;;;;;64.03;23.87;;;;;;;;;;5040067;28;20445;-66
2022/11/24 14:37:52;;;;;;;73.27;24.93;;;;;;;;;;5048018;28;20532;-66
2022/11/24 14:40:39;;;;;;;65.63;22.70;;;;;;;;;;5049276;28;20437;-66